Time;durP1;ratioP1;P1;durP2;ratioP2;P2;SDS_P1;SDS_P2;PMS_P1;PMS_P2;Temp;Humidity;BMP_temperature;BMP_pressure;BME280_temperature;BME280_humidity;BME280_pressure;Samples;Min_cycle;Max_cycle;Signal;HPM_P1;HPM_P2
2023/12/03 00:00:07;;;;;;;12.07;9.13;;;;;;;;;;5104990;27;42087;-71
2023/12/03 00:02:35;;;;;;;13.38;8.65;;;;;;;;;;5092290;27;39840;-70
2023/12/03 00:05:04;;;;;;;11.27;8.45;;;;;;;;;;5103270;28;41124;-71
2023/12/03 00:07:32;;;;;;;11.35;8.20;;;;;;;;;;5104425;27;42097;-70
2023/12/03 00:10:02;;;;;;;10.82;8.32;;;;;;;;;;5094082;27;41738;-70
2023/12/03 00:12:30;;;;;;;12.35;8.27;;;;;;;;;;5100950;28;42833;-70
2023/12/03 00:15:08;;;;;;;14.32;8.65;;;;;;;;;;5108495;27;39821;-70
2023/12/03 00:17:36;;;;;;;10.95;8.65;;;;;;;;;;5107248;28;42485;-70
2023/12/03 00:20:05;;;;;;;10.10;8.23;;;;;;;;;;5109165;27;42792;-70
2023/12/03 00:22:33;;;;;;;10.77;8.30;;;;;;;;;;5107107;27;40265;-70
2023/12/03 00:25:02;;;;;;;12.95;9.75;;;;;;;;;;5107918;27;45471;-71
2023/12/03 00:27:30;;;;;;;13.82;9.00;;;;;;;;;;5107585;27;42771;-70
2023/12/03 00:29:58;;;;;;;11.40;9.07;;;;;;;;;;5105763;27;40848;-70
2023/12/03 00:32:26;;;;;;;14.63;8.90;;;;;;;;;;5100541;27;42139;-71
2023/12/03 00:34:54;;;;;;;12.65;8.02;;;;;;;;;;5107414;27;40411;-71
2023/12/03 00:37:22;;;;;;;16.55;10.68;;;;;;;;;;5108965;27;42308;-70
2023/12/03 00:39:50;;;;;;;11.48;9.15;;;;;;;;;;5107621;27;42095;-70
2023/12/03 00:42:20;;;;;;;13.88;8.98;;;;;;;;;;5108233;27;41379;-70
2023/12/03 00:44:48;;;;;;;14.10;10.10;;;;;;;;;;5106714;27;41757;-70
2023/12/03 00:47:18;;;;;;;10.60;8.82;;;;;;;;;;5105833;27;43177;-70
2023/12/03 00:49:46;;;;;;;13.07;9.48;;;;;;;;;;5107812;28;41571;-70
2023/12/03 00:52:14;;;;;;;14.95;8.88;;;;;;;;;;5093809;28;41579;-70
2023/12/03 00:54:42;;;;;;;12.10;9.15;;;;;;;;;;5108437;27;40347;-71
2023/12/03 00:57:10;;;;;;;12.15;9.10;;;;;;;;;;5104764;27;42548;-71
2023/12/03 00:59:39;;;;;;;13.98;9.75;;;;;;;;;;5098447;27;41375;-71
2023/12/03 01:02:07;;;;;;;12.15;9.38;;;;;;;;;;5106271;27;39985;-71
2023/12/03 01:04:35;;;;;;;17.38;10.20;;;;;;;;;;5105488;27;42625;-70
2023/12/03 01:07:03;;;;;;;11.98;9.20;;;;;;;;;;5105840;27;41749;-71
2023/12/03 01:09:31;;;;;;;12.88;9.68;;;;;;;;;;5107944;28;40863;-70
2023/12/03 01:12:01;;;;;;;13.07;9.90;;;;;;;;;;5108396;27;40951;-70
2023/12/03 01:14:29;;;;;;;10.23;8.35;;;;;;;;;;5102810;28;43143;-71
2023/12/03 01:16:58;;;;;;;14.20;9.70;;;;;;;;;;5107596;28;41576;-70
2023/12/03 01:19:26;;;;;;;13.07;9.57;;;;;;;;;;5105992;27;42544;-70
2023/12/03 01:21:54;;;;;;;10.95;9.23;;;;;;;;;;5106366;27;40001;-71
2023/12/03 01:24:22;;;;;;;12.23;9.85;;;;;;;;;;5106924;28;41117;-70
2023/12/03 01:26:50;;;;;;;13.32;9.98;;;;;;;;;;5091464;27;43140;-70
2023/12/03 01:29:18;;;;;;;11.20;9.23;;;;;;;;;;5106941;28;40338;-70
2023/12/03 01:31:46;;;;;;;13.55;10.23;;;;;;;;;;5106196;27;41621;-71
2023/12/03 01:34:15;;;;;;;12.30;9.63;;;;;;;;;;5106392;27;41943;-71
2023/12/03 01:36:44;;;;;;;13.73;10.13;;;;;;;;;;5096873;27;41216;-71
2023/12/03 01:39:13;;;;;;;13.18;9.68;;;;;;;;;;5107000;27;42698;-71
2023/12/03 01:41:41;;;;;;;13.88;9.85;;;;;;;;;;5105379;27;40722;-71
2023/12/03 01:44:09;;;;;;;13.20;9.70;;;;;;;;;;5094033;27;41709;-71
2023/12/03 01:46:37;;;;;;;13.15;10.13;;;;;;;;;;5107354;27;41990;-71
2023/12/03 01:49:05;;;;;;;13.48;10.05;;;;;;;;;;5092390;27;40400;-71
2023/12/03 01:51:34;;;;;;;15.63;10.43;;;;;;;;;;5093774;28;42156;-71
2023/12/03 01:54:03;;;;;;;14.98;10.15;;;;;;;;;;5092606;27;41769;-70
2023/12/03 01:56:30;;;;;;;14.35;9.88;;;;;;;;;;5106500;27;40470;-71
2023/12/03 01:58:58;;;;;;;13.30;10.13;;;;;;;;;;5105426;27;42681;-71
2023/12/03 02:01:26;;;;;;;15.00;11.20;;;;;;;;;;5105492;28;40552;-71
2023/12/03 02:03:54;;;;;;;16.52;10.75;;;;;;;;;;5086605;27;41619;-70
2023/12/03 02:06:22;;;;;;;15.27;10.73;;;;;;;;;;5105110;27;41599;-70
2023/12/03 02:08:52;;;;;;;15.82;10.80;;;;;;;;;;5101441;27;40471;-70
2023/12/03 02:11:20;;;;;;;13.68;10.32;;;;;;;;;;5105935;27;42325;-71
2023/12/03 02:13:48;;;;;;;13.35;10.25;;;;;;;;;;5105717;27;41923;-71
2023/12/03 02:16:16;;;;;;;13.73;10.57;;;;;;;;;;5107725;27;40480;-70
2023/12/03 02:18:44;;;;;;;15.23;10.90;;;;;;;;;;5105801;27;41045;-71
2023/12/03 02:21:12;;;;;;;13.80;10.20;;;;;;;;;;5105062;27;40323;-71
2023/12/03 02:23:42;;;;;;;15.57;10.88;;;;;;;;;;5104704;28;42235;-71
2023/12/03 02:26:10;;;;;;;14.70;10.93;;;;;;;;;;5105725;27;42114;-70
2023/12/03 02:28:37;;;;;;;12.95;9.70;;;;;;;;;;5103702;27;40380;-71
2023/12/03 02:31:07;;;;;;;13.75;9.93;;;;;;;;;;5103385;27;41501;-71
2023/12/03 02:33:35;;;;;;;15.85;11.48;;;;;;;;;;5105488;27;43263;-71
2023/12/03 02:36:04;;;;;;;13.88;10.35;;;;;;;;;;5105404;27;40160;-70
2023/12/03 02:38:32;;;;;;;15.20;10.50;;;;;;;;;;5104638;27;41536;-70
2023/12/03 02:41:02;;;;;;;13.80;10.35;;;;;;;;;;5087567;28;40656;-70
2023/12/03 02:43:30;;;;;;;16.50;11.07;;;;;;;;;;5104048;27;40947;-71
2023/12/03 02:45:58;;;;;;;14.00;10.10;;;;;;;;;;5098009;28;40448;-71
2023/12/03 02:48:26;;;;;;;13.90;10.13;;;;;;;;;;5106118;27;40402;-71
2023/12/03 02:50:54;;;;;;;12.75;9.43;;;;;;;;;;5097414;27;41496;-70
2023/12/03 02:53:23;;;;;;;14.57;10.02;;;;;;;;;;5099224;27;43132;-70
2023/12/03 02:55:51;;;;;;;14.10;10.63;;;;;;;;;;5104006;27;41297;-70
2023/12/03 02:58:20;;;;;;;12.52;10.02;;;;;;;;;;5106490;27;41457;-70
2023/12/03 03:00:48;;;;;;;16.98;10.57;;;;;;;;;;5102426;27;41532;-71
2023/12/03 03:03:16;;;;;;;13.55;9.90;;;;;;;;;;5088216;28;40256;-71
2023/12/03 03:05:44;;;;;;;14.18;10.05;;;;;;;;;;5103774;27;42335;-71
2023/12/03 03:08:12;;;;;;;13.45;9.43;;;;;;;;;;5105557;27;41352;-70
2023/12/03 03:10:40;;;;;;;17.15;10.55;;;;;;;;;;5103317;27;41686;-70
2023/12/03 03:13:08;;;;;;;15.02;10.32;;;;;;;;;;5106452;28;42196;-71
2023/12/03 03:15:37;;;;;;;15.35;10.35;;;;;;;;;;5104228;27;40285;-70
2023/12/03 03:18:05;;;;;;;13.05;9.75;;;;;;;;;;5092580;27;41579;-70
2023/12/03 03:20:34;;;;;;;13.25;9.95;;;;;;;;;;5104636;27;43130;-71
2023/12/03 03:23:02;;;;;;;13.93;8.93;;;;;;;;;;5104796;27;39910;-70
2023/12/03 03:25:30;;;;;;;12.23;9.57;;;;;;;;;;5104797;28;41614;-70
2023/12/03 03:27:58;;;;;;;12.40;9.45;;;;;;;;;;5104000;27;41305;-70
2023/12/03 03:30:28;;;;;;;12.52;8.63;;;;;;;;;;5105757;28;42111;-70
2023/12/03 03:32:57;;;;;;;13.90;9.55;;;;;;;;;;5104793;27;44454;-71
2023/12/03 03:35:25;;;;;;;14.57;9.73;;;;;;;;;;5107325;27;40036;-70
2023/12/03 03:37:53;;;;;;;12.02;9.50;;;;;;;;;;5108197;27;41007;-71
2023/12/03 03:40:21;;;;;;;13.20;9.07;;;;;;;;;;5104072;28;42409;-70
2023/12/03 03:42:49;;;;;;;15.10;9.95;;;;;;;;;;5092199;28;41370;-70
2023/12/03 03:45:17;;;;;;;14.43;9.30;;;;;;;;;;5108656;28;42560;-71
2023/12/03 03:47:45;;;;;;;13.60;9.75;;;;;;;;;;5099704;27;43208;-70
2023/12/03 03:50:14;;;;;;;13.00;9.27;;;;;;;;;;5109094;27;41831;-70
2023/12/03 03:52:42;;;;;;;13.00;8.88;;;;;;;;;;5108753;28;41976;-70
2023/12/03 03:55:10;;;;;;;13.23;9.45;;;;;;;;;;5105895;27;41404;-71
2023/12/03 03:57:38;;;;;;;14.75;9.77;;;;;;;;;;5089688;28;41869;-70
2023/12/03 04:00:06;;;;;;;14.45;9.43;;;;;;;;;;5108125;27;42184;-70
2023/12/03 04:02:38;;;;;;;12.25;9.20;;;;;;;;;;5103156;28;40466;-70
2023/12/03 04:05:06;;;;;;;12.23;9.02;;;;;;;;;;5101480;27;41645;-71
2023/12/03 04:07:36;;;;;;;12.07;8.82;;;;;;;;;;5109325;27;42096;-70
2023/12/03 04:10:05;;;;;;;11.85;8.65;;;;;;;;;;5106414;27;40091;-71
2023/12/03 04:12:33;;;;;;;12.15;8.50;;;;;;;;;;5108943;27;42878;-70
2023/12/03 04:15:01;;;;;;;12.30;8.70;;;;;;;;;;5089983;27;40974;-70
2023/12/03 04:17:29;;;;;;;12.88;9.35;;;;;;;;;;5098689;27;42129;-70
2023/12/03 04:19:56;;;;;;;12.18;9.10;;;;;;;;;;5108046;27;42040;-70
2023/12/03 04:22:24;;;;;;;12.25;8.77;;;;;;;;;;5109252;27;40010;-70
2023/12/03 04:24:54;;;;;;;12.15;8.98;;;;;;;;;;5106081;28;40925;-70
2023/12/03 04:27:21;;;;;;;13.80;9.40;;;;;;;;;;5108823;27;41973;-70
2023/12/03 04:29:50;;;;;;;12.10;9.02;;;;;;;;;;5106858;27;41455;-70
2023/12/03 04:32:18;;;;;;;15.30;9.07;;;;;;;;;;5106178;27;42007;-71
2023/12/03 04:34:46;;;;;;;12.70;8.88;;;;;;;;;;5107282;27;40497;-71
2023/12/03 04:37:14;;;;;;;16.27;9.57;;;;;;;;;;5107824;27;42800;-70
2023/12/03 04:39:43;;;;;;;15.55;9.13;;;;;;;;;;5106673;27;41937;-70
2023/12/03 04:42:12;;;;;;;11.30;8.30;;;;;;;;;;5106605;27;39985;-70
2023/12/03 04:44:40;;;;;;;14.10;8.82;;;;;;;;;;5107435;27;41635;-70
2023/12/03 04:47:08;;;;;;;11.65;9.07;;;;;;;;;;5092801;28;41562;-70
2023/12/03 04:49:36;;;;;;;12.05;9.07;;;;;;;;;;5095115;27;40049;-69
2023/12/03 04:52:04;;;;;;;11.55;8.70;;;;;;;;;;5107279;28;41645;-69
2023/12/03 04:54:32;;;;;;;15.18;9.05;;;;;;;;;;5108307;28;40867;-70
2023/12/03 04:57:00;;;;;;;13.32;9.77;;;;;;;;;;5107694;28;41466;-70
2023/12/03 04:59:31;;;;;;;11.75;8.88;;;;;;;;;;5104993;27;43120;-70
2023/12/03 05:01:59;;;;;;;12.75;9.48;;;;;;;;;;5102928;27;38810;-69
2023/12/03 05:04:28;;;;;;;11.30;8.75;;;;;;;;;;5107606;28;41777;-69
2023/12/03 05:06:56;;;;;;;11.68;9.15;;;;;;;;;;5106164;27;42111;-69
2023/12/03 05:09:26;;;;;;;10.85;8.93;;;;;;;;;;5107045;27;41252;-69
2023/12/03 05:11:57;;;;;;;13.85;9.88;;;;;;;;;;5106459;27;41004;-69
2023/12/03 05:14:24;;;;;;;10.55;8.73;;;;;;;;;;5100711;28;42089;-69
2023/12/03 05:16:54;;;;;;;9.13;7.65;;;;;;;;;;5108176;28;42167;-70
2023/12/03 05:19:22;;;;;;;10.50;9.20;;;;;;;;;;5106866;27;41346;-69
2023/12/03 05:21:53;;;;;;;14.10;9.90;;;;;;;;;;5102068;27;40368;-69
2023/12/03 05:24:21;;;;;;;12.82;9.57;;;;;;;;;;5102373;27;41523;-70
2023/12/03 05:26:50;;;;;;;11.23;8.80;;;;;;;;;;5107153;27;41736;-71
2023/12/03 05:29:21;;;;;;;10.68;8.65;;;;;;;;;;5106337;28;40252;-71
2023/12/03 05:31:49;;;;;;;13.35;10.02;;;;;;;;;;5105159;28;41461;-71
2023/12/03 05:34:21;;;;;;;12.02;9.43;;;;;;;;;;5106295;28;42323;-71
2023/12/03 05:36:49;;;;;;;12.43;9.73;;;;;;;;;;5096036;28;40213;-70
2023/12/03 05:39:21;;;;;;;11.07;9.27;;;;;;;;;;5107175;28;41087;-71
2023/12/03 05:41:49;;;;;;;11.95;8.80;;;;;;;;;;5105648;27;40293;-71
2023/12/03 05:44:18;;;;;;;10.70;9.00;;;;;;;;;;5105936;28;41615;-70
2023/12/03 05:46:46;;;;;;;11.82;8.95;;;;;;;;;;5107623;28;43116;-71
2023/12/03 05:49:13;;;;;;;10.60;8.55;;;;;;;;;;5099548;28;40436;-70
2023/12/03 05:51:44;;;;;;;10.13;8.63;;;;;;;;;;5096503;27;41741;-70
2023/12/03 05:54:12;;;;;;;11.50;8.45;;;;;;;;;;5102340;27;42069;-71
2023/12/03 05:56:40;;;;;;;12.93;9.57;;;;;;;;;;5105217;27;41244;-70
2023/12/03 05:59:08;;;;;;;10.20;8.25;;;;;;;;;;5105223;27;40931;-71
2023/12/03 06:01:36;;;;;;;12.38;9.52;;;;;;;;;;5100157;27;41374;-70
2023/12/03 06:04:06;;;;;;;10.80;8.85;;;;;;;;;;5098294;27;41189;-70
2023/12/03 06:06:35;;;;;;;9.68;8.32;;;;;;;;;;5102528;27;42148;-70
2023/12/03 06:09:05;;;;;;;11.13;8.73;;;;;;;;;;5099626;28;42387;-70
2023/12/03 06:11:33;;;;;;;11.52;9.50;;;;;;;;;;5106278;27;41416;-70
2023/12/03 06:14:01;;;;;;;10.13;8.25;;;;;;;;;;5105867;27;43021;-70
2023/12/03 06:16:29;;;;;;;10.88;8.35;;;;;;;;;;5105551;27;40620;-70
2023/12/03 06:18:56;;;;;;;9.45;8.15;;;;;;;;;;5108422;28;42469;-70
2023/12/03 06:21:24;;;;;;;10.15;8.45;;;;;;;;;;5105387;27;41243;-70
2023/12/03 06:23:56;;;;;;;9.43;7.57;;;;;;;;;;5105462;28;41341;-71
2023/12/03 06:26:33;;;;;;;11.07;8.68;;;;;;;;;;5104598;27;41248;-70
2023/12/03 06:29:01;;;;;;;11.02;8.15;;;;;;;;;;5108113;28;40302;-70
2023/12/03 06:31:29;;;;;;;10.82;8.60;;;;;;;;;;5101535;28;40048;-70
2023/12/03 06:33:57;;;;;;;10.40;8.48;;;;;;;;;;5098210;27;42117;-70
2023/12/03 06:36:25;;;;;;;11.75;8.90;;;;;;;;;;5099914;27;40233;-71
2023/12/03 06:38:53;;;;;;;9.57;8.15;;;;;;;;;;5105676;28;41628;-71
2023/12/03 06:41:21;;;;;;;10.35;8.63;;;;;;;;;;5107055;27;43128;-71
2023/12/03 06:43:54;;;;;;;10.10;7.95;;;;;;;;;;5102311;28;41411;-71
2023/12/03 06:46:22;;;;;;;11.55;8.27;;;;;;;;;;5100017;28;41841;-70
2023/12/03 06:48:50;;;;;;;10.30;8.13;;;;;;;;;;5096569;28;41402;-71
2023/12/03 06:51:18;;;;;;;9.90;8.00;;;;;;;;;;5103644;28;41995;-71
2023/12/03 06:53:46;;;;;;;9.60;7.28;;;;;;;;;;5059663;28;41736;-71
2023/12/03 06:56:17;;;;;;;9.80;7.63;;;;;;;;;;5063587;28;40850;-70
2023/12/03 06:58:47;;;;;;;10.75;8.60;;;;;;;;;;5058152;28;40412;-71
2023/12/03 07:01:17;;;;;;;9.30;7.45;;;;;;;;;;5058482;28;41916;-70
2023/12/03 07:03:45;;;;;;;11.07;7.55;;;;;;;;;;5067091;28;39567;-71
2023/12/03 07:06:13;;;;;;;9.32;7.72;;;;;;;;;;5059738;28;41491;-71
2023/12/03 07:08:42;;;;;;;10.80;8.07;;;;;;;;;;5058598;28;40800;-71
2023/12/03 07:11:11;;;;;;;8.80;7.25;;;;;;;;;;5067626;28;42001;-71
2023/12/03 07:13:39;;;;;;;9.40;7.70;;;;;;;;;;5058606;28;41727;-71
2023/12/03 07:16:09;;;;;;;9.27;7.97;;;;;;;;;;5068551;28;40568;-71
2023/12/03 07:18:41;;;;;;;11.90;7.38;;;;;;;;;;5068053;28;41884;-71
2023/12/03 07:21:09;;;;;;;8.70;7.07;;;;;;;;;;5069083;28;42487;-71
2023/12/03 07:23:37;;;;;;;10.00;7.63;;;;;;;;;;5069375;28;39319;-71
2023/12/03 07:26:11;;;;;;;10.60;7.70;;;;;;;;;;5069551;28;42100;-71
2023/12/03 07:28:43;;;;;;;9.40;7.57;;;;;;;;;;5066022;28;41342;-71
2023/12/03 07:31:11;;;;;;;9.65;7.53;;;;;;;;;;5067241;28;42161;-71
2023/12/03 07:33:40;;;;;;;9.18;8.18;;;;;;;;;;5066442;28;41983;-73
2023/12/03 07:36:09;;;;;;;13.35;8.05;;;;;;;;;;5066582;28;41587;-73
2023/12/03 07:38:37;;;;;;;15.27;7.72;;;;;;;;;;5065373;28;42346;-76
2023/12/03 07:41:09;;;;;;;15.65;8.15;;;;;;;;;;5049962;28;42794;-78
2023/12/03 07:43:37;;;;;;;17.10;8.32;;;;;;;;;;5059533;28;41074;-80
2023/12/03 07:46:05;;;;;;;21.23;7.75;;;;;;;;;;5060813;28;41524;-76
2023/12/03 07:48:33;;;;;;;19.60;7.63;;;;;;;;;;5057900;28;42273;-79
2023/12/03 07:51:03;;;;;;;19.38;8.20;;;;;;;;;;5050530;28;42236;-76
2023/12/03 07:53:31;;;;;;;27.02;7.63;;;;;;;;;;5090850;27;41929;-73
2023/12/03 07:56:00;;;;;;;21.85;7.88;;;;;;;;;;5108797;28;39834;-77
2023/12/03 07:58:28;;;;;;;27.05;9.63;;;;;;;;;;5108015;27;43122;-77
2023/12/03 08:00:58;;;;;;;31.33;7.95;;;;;;;;;;5103008;27;41645;-74
2023/12/03 08:03:26;;;;;;;31.70;9.63;;;;;;;;;;5107324;27;40282;-76
2023/12/03 08:05:53;;;;;;;26.95;7.63;;;;;;;;;;5100499;28;42125;-77
2023/12/03 08:08:23;;;;;;;24.50;8.35;;;;;;;;;;5099059;28;41348;-80
2023/12/03 08:10:51;;;;;;;23.05;7.78;;;;;;;;;;5089226;28;40158;-78
2023/12/03 08:13:19;;;;;;;18.98;8.07;;;;;;;;;;5098844;28;41357;-80
2023/12/03 08:15:46;;;;;;;29.88;8.77;;;;;;;;;;5090926;27;39864;-80
2023/12/03 08:18:14;;;;;;;32.67;7.75;;;;;;;;;;5104833;27;42191;-79
2023/12/03 08:20:43;;;;;;;18.58;7.55;;;;;;;;;;5094876;27;42241;-81
2023/12/03 08:23:10;;;;;;;16.05;7.07;;;;;;;;;;5108683;28;40790;-77
2023/12/03 08:25:40;;;;;;;16.88;7.00;;;;;;;;;;5108992;27;41369;-77
2023/12/03 08:28:08;;;;;;;18.95;7.30;;;;;;;;;;5097828;27;41939;-78
2023/12/03 08:30:36;;;;;;;24.98;9.35;;;;;;;;;;5101937;28;40418;-71
2023/12/03 08:33:04;;;;;;;19.33;8.25;;;;;;;;;;5098033;27;42418;-77
2023/12/03 08:35:34;;;;;;;20.20;7.22;;;;;;;;;;5103978;28;40964;-77
2023/12/03 08:38:02;;;;;;;34.53;8.32;;;;;;;;;;5107476;28;41120;-77
2023/12/03 08:40:30;;;;;;;27.70;8.52;;;;;;;;;;5109259;28;43184;-76
2023/12/03 08:42:59;;;;;;;27.42;12.20;;;;;;;;;;5108860;27;40001;-77
2023/12/03 08:45:27;;;;;;;24.40;9.27;;;;;;;;;;5108727;27;42648;-74
2023/12/03 08:47:55;;;;;;;21.70;8.13;;;;;;;;;;5100983;28;42331;-74
2023/12/03 08:50:27;;;;;;;16.67;6.90;;;;;;;;;;5092561;28;40858;-74
2023/12/03 08:52:55;;;;;;;21.52;7.15;;;;;;;;;;5094319;27;41457;-78
2023/12/03 08:55:23;;;;;;;18.00;7.30;;;;;;;;;;5095220;27;41523;-78
2023/12/03 08:57:51;;;;;;;19.30;7.30;;;;;;;;;;5105846;28;41082;-75
2023/12/03 09:00:20;;;;;;;23.15;9.30;;;;;;;;;;5094784;27;42077;-77
2023/12/03 09:02:48;;;;;;;19.25;8.23;;;;;;;;;;5103718;27;39835;-74
2023/12/03 09:05:16;;;;;;;17.38;7.38;;;;;;;;;;5107720;28;40940;-74
2023/12/03 09:07:44;;;;;;;15.75;7.40;;;;;;;;;;5106368;28;41553;-77
2023/12/03 09:10:12;;;;;;;14.25;7.05;;;;;;;;;;5107207;27;39851;-75
2023/12/03 09:12:42;;;;;;;17.73;7.70;;;;;;;;;;5107883;27;41094;-82
2023/12/03 09:15:10;;;;;;;19.38;7.68;;;;;;;;;;5088120;28;42298;-74
2023/12/03 09:17:39;;;;;;;14.52;8.52;;;;;;;;;;5100183;28;42591;-76
2023/12/03 09:20:08;;;;;;;10.48;7.03;;;;;;;;;;5107248;27;42247;-76
2023/12/03 09:22:36;;;;;;;20.83;7.38;;;;;;;;;;5108282;27;41805;-81
2023/12/03 09:25:05;;;;;;;19.83;6.88;;;;;;;;;;5100828;27;41292;-78
2023/12/03 09:27:34;;;;;;;17.90;7.47;;;;;;;;;;5103537;27;43058;-77
2023/12/03 09:30:04;;;;;;;11.73;6.80;;;;;;;;;;5106348;28;39958;-76
2023/12/03 09:35:39;;;;;;;16.60;7.75;;;;;;;;;;5045722;28;42043;-73
2023/12/03 09:38:07;;;;;;;18.65;9.35;;;;;;;;;;5046144;28;40438;-75
2023/12/03 09:40:35;;;;;;;18.63;7.15;;;;;;;;;;5054314;28;42243;-75
2023/12/03 09:43:04;;;;;;;15.95;7.38;;;;;;;;;;5046890;28;40145;-74
2023/12/03 09:45:32;;;;;;;10.82;6.72;;;;;;;;;;5048751;28;42631;-73
2023/12/03 09:48:01;;;;;;;24.42;8.57;;;;;;;;;;5046545;28;42285;-74
2023/12/03 09:50:29;;;;;;;17.27;7.13;;;;;;;;;;5045280;28;39468;-74
2023/12/03 09:52:59;;;;;;;13.25;6.88;;;;;;;;;;5039086;28;40937;-77
2023/12/03 09:55:27;;;;;;;18.50;7.00;;;;;;;;;;5046680;28;42287;-73
2023/12/03 09:57:55;;;;;;;14.27;7.32;;;;;;;;;;5047191;28;41447;-74
2023/12/03 10:00:23;;;;;;;13.70;7.45;;;;;;;;;;5047393;28;42342;-74
2023/12/03 10:02:52;;;;;;;23.38;6.75;;;;;;;;;;5047304;28;41116;-74
2023/12/03 10:05:21;;;;;;;18.55;6.53;;;;;;;;;;5037229;28;42796;-74
2023/12/03 10:07:49;;;;;;;14.55;6.80;;;;;;;;;;5047280;28;43052;-74
2023/12/03 10:10:19;;;;;;;13.38;7.60;;;;;;;;;;5044624;28;40492;-74
2023/12/03 10:12:48;;;;;;;14.32;6.60;;;;;;;;;;5048205;28;43958;-73
2023/12/03 10:15:16;;;;;;;20.80;7.80;;;;;;;;;;5044426;28;42720;-73
2023/12/03 10:17:44;;;;;;;26.48;9.32;;;;;;;;;;5045791;28;40457;-76
2023/12/03 10:20:22;;;;;;;26.60;8.82;;;;;;;;;;5044606;28;40001;-76
2023/12/03 10:22:50;;;;;;;26.95;8.30;;;;;;;;;;5043188;28;32921;-74
2023/12/03 10:25:28;;;;;;;21.98;11.25;;;;;;;;;;5047148;28;42386;-74
2023/12/03 10:27:57;;;;;;;30.60;9.17;;;;;;;;;;5042194;28;42305;-76
2023/12/03 10:30:25;;;;;;;35.42;7.85;;;;;;;;;;5042606;28;40149;-73
2023/12/03 10:32:53;;;;;;;23.02;7.65;;;;;;;;;;5043576;28;41702;-73
2023/12/03 10:35:21;;;;;;;23.25;7.07;;;;;;;;;;5065768;28;41995;-74
2023/12/03 10:37:49;;;;;;;19.15;7.78;;;;;;;;;;5064574;28;41324;-75
2023/12/03 10:40:18;;;;;;;12.60;6.82;;;;;;;;;;5066341;28;42055;-74
2023/12/03 10:42:47;;;;;;;22.30;7.88;;;;;;;;;;5067652;28;43280;-75
2023/12/03 10:45:15;;;;;;;26.90;8.45;;;;;;;;;;5064395;28;41414;-75
2023/12/03 10:47:44;;;;;;;28.45;7.30;;;;;;;;;;5067067;28;42940;-75
2023/12/03 10:50:12;;;;;;;13.57;6.85;;;;;;;;;;5055418;28;39980;-76
2023/12/03 10:52:41;;;;;;;16.17;8.63;;;;;;;;;;5066532;28;41044;-74
2023/12/03 10:55:10;;;;;;;9.80;5.80;;;;;;;;;;5055782;28;20277;-75
2023/12/03 10:57:41;;;;;;;21.13;7.15;;;;;;;;;;5066123;28;40257;-75
2023/12/03 11:00:11;;;;;;;14.13;6.57;;;;;;;;;;5061320;28;41786;-79
2023/12/03 11:02:40;;;;;;;27.13;8.23;;;;;;;;;;5064557;28;41662;-76
2023/12/03 11:05:10;;;;;;;15.95;6.65;;;;;;;;;;5065493;28;40372;-76
2023/12/03 11:07:38;;;;;;;12.82;6.97;;;;;;;;;;5063820;28;42124;-75
2023/12/03 11:10:06;;;;;;;14.95;6.47;;;;;;;;;;5066290;28;41791;-74
2023/12/03 11:12:34;;;;;;;12.13;6.38;;;;;;;;;;5061599;28;42587;-73
2023/12/03 11:15:03;;;;;;;18.90;7.72;;;;;;;;;;5050635;28;42162;-75
2023/12/03 11:17:33;;;;;;;11.63;6.57;;;;;;;;;;5061360;28;41640;-75
2023/12/03 11:20:04;;;;;;;13.85;8.32;;;;;;;;;;5062616;28;41209;-77
2023/12/03 11:22:37;;;;;;;14.13;8.18;;;;;;;;;;5062095;28;41693;-75
2023/12/03 11:25:06;;;;;;;15.32;8.32;;;;;;;;;;5060466;28;40370;-76
2023/12/03 11:27:34;;;;;;;12.32;6.20;;;;;;;;;;5064885;28;41479;-75
2023/12/03 11:30:04;;;;;;;14.60;6.25;;;;;;;;;;5060673;28;40663;-78
2023/12/03 11:32:33;;;;;;;11.57;7.07;;;;;;;;;;5066567;28;42258;-76
2023/12/03 11:35:13;;;;;;;16.55;8.27;;;;;;;;;;5064873;28;41775;-76
2023/12/03 11:37:41;;;;;;;14.23;9.25;;;;;;;;;;5058057;28;41294;-76
2023/12/03 11:40:10;;;;;;;14.82;9.85;;;;;;;;;;5062868;28;41535;-75
2023/12/03 11:42:44;;;;;;;15.10;9.93;;;;;;;;;;5061442;28;41702;-77
2023/12/03 11:45:15;;;;;;;12.35;8.38;;;;;;;;;;5062321;28;40211;-75
2023/12/03 11:47:46;;;;;;;21.08;13.98;;;;;;;;;;5051685;28;42055;-75
2023/12/03 11:50:14;;;;;;;21.38;13.75;;;;;;;;;;5066083;28;42062;-78
2023/12/03 11:52:44;;;;;;;15.18;11.50;;;;;;;;;;5057990;28;42219;-78
2023/12/03 11:55:14;;;;;;;19.50;12.55;;;;;;;;;;5058672;28;42122;-79
2023/12/03 11:57:42;;;;;;;20.40;11.52;;;;;;;;;;5059897;28;41386;-78
2023/12/03 12:00:11;;;;;;;16.92;11.70;;;;;;;;;;5060052;28;40051;-80
2023/12/03 12:02:39;;;;;;;13.05;10.63;;;;;;;;;;5068970;28;42324;-78
2023/12/03 12:05:09;;;;;;;20.42;12.35;;;;;;;;;;5070340;28;40645;-78
2023/12/03 12:07:37;;;;;;;14.55;10.43;;;;;;;;;;5048502;28;40908;-77
2023/12/03 12:10:06;;;;;;;12.35;10.02;;;;;;;;;;5065999;28;42432;-74
2023/12/03 12:12:34;;;;;;;16.83;11.20;;;;;;;;;;5069874;28;40349;-74
2023/12/03 12:15:02;;;;;;;19.23;11.93;;;;;;;;;;5069166;28;43185;-74
2023/12/03 12:17:30;;;;;;;11.68;10.00;;;;;;;;;;5071360;28;40426;-74
2023/12/03 12:19:58;;;;;;;15.13;9.05;;;;;;;;;;5069622;28;42683;-75
2023/12/03 12:22:43;;;;;;;12.95;9.80;;;;;;;;;;5062822;28;41860;-74
2023/12/03 12:25:11;;;;;;;13.30;8.95;;;;;;;;;;5057615;28;40349;-74
2023/12/03 12:27:39;;;;;;;13.23;8.68;;;;;;;;;;5067523;28;43190;-74
2023/12/03 12:30:08;;;;;;;12.20;8.82;;;;;;;;;;5068702;28;41758;-74
2023/12/03 12:32:54;;;;;;;12.73;8.43;;;;;;;;;;5050118;28;39595;-74
2023/12/03 12:35:22;;;;;;;11.82;8.45;;;;;;;;;;5069249;28;42162;-74
2023/12/03 12:38:00;;;;;;;9.68;8.63;;;;;;;;;;5066881;28;40350;-74
2023/12/03 12:40:30;;;;;;;9.48;7.07;;;;;;;;;;5067006;28;41984;-74
2023/12/03 12:43:08;;;;;;;10.75;8.00;;;;;;;;;;5065842;28;41734;-74
2023/12/03 12:45:36;;;;;;;9.10;7.60;;;;;;;;;;5048603;28;39326;-74
2023/12/03 12:48:04;;;;;;;12.00;9.02;;;;;;;;;;5061054;28;41267;-74
2023/12/03 12:50:32;;;;;;;13.20;8.77;;;;;;;;;;5060555;28;41706;-74
2023/12/03 12:53:03;;;;;;;15.75;7.97;;;;;;;;;;5064014;28;40115;-75
2023/12/03 12:55:31;;;;;;;9.82;6.72;;;;;;;;;;5069372;28;41548;-75
2023/12/03 12:58:01;;;;;;;8.75;6.88;;;;;;;;;;5069094;28;41349;-74
2023/12/03 13:00:29;;;;;;;9.48;7.05;;;;;;;;;;5066854;28;42586;-74
2023/12/03 13:02:57;;;;;;;7.88;6.63;;;;;;;;;;5043450;28;41855;-74
2023/12/03 13:05:25;;;;;;;10.23;7.82;;;;;;;;;;5064737;28;40216;-74
2023/12/03 13:07:54;;;;;;;7.85;6.43;;;;;;;;;;5065690;28;41404;-74
2023/12/03 13:10:23;;;;;;;10.70;7.28;;;;;;;;;;5067369;28;42650;-74
2023/12/03 13:12:51;;;;;;;7.55;6.72;;;;;;;;;;5061129;28;39542;-74
2023/12/03 13:15:19;;;;;;;10.05;7.65;;;;;;;;;;5052532;28;41145;-74
2023/12/03 13:17:48;;;;;;;8.95;7.20;;;;;;;;;;5057463;28;42646;-74
2023/12/03 13:20:16;;;;;;;10.20;6.13;;;;;;;;;;5056516;28;41198;-74
2023/12/03 13:22:44;;;;;;;8.13;6.30;;;;;;;;;;5049377;28;41248;-74
2023/12/03 13:25:12;;;;;;;9.88;6.65;;;;;;;;;;5066906;28;40637;-74
2023/12/03 13:27:42;;;;;;;10.13;6.35;;;;;;;;;;5051405;28;41549;-74
2023/12/03 13:30:10;;;;;;;9.35;6.97;;;;;;;;;;5055944;28;41848;-74
2023/12/03 13:32:38;;;;;;;20.75;7.80;;;;;;;;;;5067104;28;40186;-75
2023/12/03 13:35:07;;;;;;;14.88;5.93;;;;;;;;;;5054250;28;41394;-74
2023/12/03 13:37:38;;;;;;;10.07;5.68;;;;;;;;;;5055910;28;42599;-74
2023/12/03 13:40:07;;;;;;;22.35;8.13;;;;;;;;;;5061923;28;39136;-75
2023/12/03 13:42:35;;;;;;;21.25;7.20;;;;;;;;;;5067985;28;43043;-75
2023/12/03 13:45:05;;;;;;;12.82;5.68;;;;;;;;;;5063665;28;40284;-74
2023/12/03 13:47:34;;;;;;;22.75;6.38;;;;;;;;;;5067370;28;41410;-74
2023/12/03 13:50:03;;;;;;;23.83;6.22;;;;;;;;;;5065981;28;42038;-74
2023/12/03 13:52:31;;;;;;;19.30;6.00;;;;;;;;;;5053486;28;40390;-76
2023/12/03 13:54:59;;;;;;;21.58;7.25;;;;;;;;;;5059961;28;41227;-75
2023/12/03 13:57:27;;;;;;;12.20;6.53;;;;;;;;;;5044670;28;40319;-74
2023/12/03 13:59:56;;;;;;;16.42;6.70;;;;;;;;;;5038417;28;39741;-75
2023/12/03 14:02:26;;;;;;;22.98;7.13;;;;;;;;;;5057996;28;41456;-75
2023/12/03 14:05:07;;;;;;;18.08;6.38;;;;;;;;;;5040828;28;39154;-73
2023/12/03 14:07:52;;;;;;;19.92;7.00;;;;;;;;;;5058415;28;41127;-73
2023/12/03 14:10:20;;;;;;;14.73;6.15;;;;;;;;;;5062385;28;43155;-73
2023/12/03 14:12:48;;;;;;;12.13;5.47;;;;;;;;;;5053465;28;41370;-73
2023/12/03 14:15:16;;;;;;;15.48;5.80;;;;;;;;;;5060919;28;41057;-72
2023/12/03 14:17:45;;;;;;;10.77;6.35;;;;;;;;;;5055215;28;42165;-73
2023/12/03 14:20:13;;;;;;;9.15;5.45;;;;;;;;;;5057796;28;41353;-73
2023/12/03 14:22:41;;;;;;;14.95;5.38;;;;;;;;;;5050554;28;43225;-72
2023/12/03 14:25:09;;;;;;;9.95;5.35;;;;;;;;;;5061492;28;41996;-72
2023/12/03 14:27:40;;;;;;;12.90;5.03;;;;;;;;;;5040017;28;42431;-70
2023/12/03 14:30:10;;;;;;;13.00;5.05;;;;;;;;;;5055292;28;41724;-72
2023/12/03 14:32:38;;;;;;;13.80;7.18;;;;;;;;;;5056928;28;41396;-75
2023/12/03 14:35:10;;;;;;;13.65;6.28;;;;;;;;;;5055245;28;42226;-73
2023/12/03 14:37:38;;;;;;;24.42;6.78;;;;;;;;;;5058059;28;42103;-75
2023/12/03 14:40:09;;;;;;;8.93;4.82;;;;;;;;;;5054829;28;40181;-75